Airfield :
LOGIN :

Register | Disclaimer

   EN    FR    IT 

 










Legend :    VFR   Marginal VFR   IFR   Intensive IFR   Very Intensive IFR
Visi :
Ceiling :
>= 8 km
>= 3000ft
5 to 8 km
1000 to 3000 ft
1500m to 5 km
500 to 1000 ft
800 to 1500m
200 to 500 ft
< 800m
< 200 ft
Symbols :   Thunderstorms  Fog  Heavy snow  Heavy precipitations  Wind > 20 kt
SIGMETs :     Misc.  Thunderstorms  Icing  Turbulence  Mountain Waves  Volcanic Ashes






- Airport Elevation : 13 ft
- IATA code : SNR


LFRZ - St-Nazaire

CURRENT METAR :
  • 242230Z AUTO 23021G34KT 6000 -RA FEW008/// SCT016/// BKN022/// ///CB 15/14 Q1003 TEMPO 3000 -RA BKN005 OVC014 BECMG 23015KT

EXPIRED METARs :
  • 242200Z AUTO 23021KT 4400 RA BR SCT010/// SCT016/// BKN027/// ///CB 15/14 Q1004 TEMPO 23025G50KT NSW BKN005 OVC014
  • 242130Z AUTO 22021KT 8000 RA BKN007/// BKN029/// BKN045/// ///CB 15/14 Q1004 TEMPO 23025G50KT 3000 -RA BKN005 OVC014
  • 242100Z AUTO 23014KT 4600 RA BR BKN006/// OVC021/// ///CB 15/14 Q1005 TEMPO 23025G50KT BKN010 BKN030CB
  • 242030Z AUTO 21021KT 6000 -RA FEW010/// SCT016/// BKN023/// ///TCU 15/14 Q1005 TEMPO 23025G50KT 3000 RA BKN010 BKN030CB

TAF TAF LFRZ
Valid from the 24 at 18:00 until the 25 at 18:00 UTC


241700Z 2418/2518 23030G40KT 9999 BKN020
TEMPO 2418/2502 3000 -RA BKN005 OVC014
TEMPO 2420/2423 23025G50KT RA BKN010 BKN030CB
BECMG 2422/2424 23015KT
TEMPO 2502/2518 4000 SHRA BKN010 BKN020TCU



MET'MAP, your aeronautical weather chart ! - Copyright ORBIFLY December 2007 - Disclaimer

ORBIFLY MET'MAP TEAM :

Programming & Development : Alexandra Zaïnal
Concept & original design : Baudouin d'Aumeries
Assistance for programming : Marc-Olivier Méhu
Technical & hardware support : Manuel Goepfert

Contact : metmap@orbifly.com




SOURCES & CREDITS :

   NOAA